Time;durP1;ratioP1;P1;durP2;ratioP2;P2;SDS_P1;SDS_P2;PMS_P1;PMS_P2;Temp;Humidity;BMP_temperature;BMP_pressure;BME280_temperature;BME280_humidity;BME280_pressure;Samples;Min_cycle;Max_cycle;Signal;HPM_P1;HPM_P2
2022/07/10 00:00:38;;;;;;;16.45;9.27;;;;;;;15.26;100.00;97358.91;5103590;27;20031;-77
2022/07/10 00:03:05;;;;;;;21.83;9.27;;;;;;;15.32;100.00;97353.00;5097732;27;20030;-77
2022/07/10 00:05:31;;;;;;;19.85;9.32;;;;;;;15.26;100.00;97337.34;5095313;28;20027;-77
2022/07/10 00:07:56;;;;;;;17.70;9.23;;;;;;;15.29;100.00;97347.88;5126052;27;20066;-77
2022/07/10 00:10:22;;;;;;;16.75;9.75;;;;;;;15.15;100.00;97338.28;5096761;27;20050;-77
2022/07/10 00:12:49;;;;;;;16.23;9.60;;;;;;;15.21;100.00;97339.59;5122756;27;20470;-77
2022/07/10 00:15:15;;;;;;;12.13;10.05;;;;;;;15.24;100.00;97338.47;5095441;27;20030;-76
2022/07/10 00:17:42;;;;;;;11.85;9.98;;;;;;;15.22;100.00;97335.94;5113570;27;20493;-77
2022/07/10 00:20:09;;;;;;;17.17;10.27;;;;;;;15.19;100.00;97330.78;5117256;27;20024;-78
2022/07/10 00:22:36;;;;;;;17.48;10.93;;;;;;;15.23;100.00;97337.59;5112318;27;20024;-77
2022/07/10 00:25:03;;;;;;;26.75;11.35;;;;;;;15.18;100.00;97335.31;5096248;28;20035;-77
2022/07/10 00:27:28;;;;;;;19.85;10.32;;;;;;;15.25;100.00;97332.97;5095436;27;20069;-77
2022/07/10 00:29:54;;;;;;;15.05;10.35;;;;;;;15.25;100.00;97329.41;5099598;28;20455;-77
2022/07/10 00:32:19;;;;;;;15.77;9.85;;;;;;;15.18;100.00;97321.00;5112033;27;20023;-77
2022/07/10 00:34:45;;;;;;;20.20;10.75;;;;;;;15.13;100.00;97317.84;5110977;28;20118;-77
2022/07/10 00:37:10;;;;;;;20.95;10.70;;;;;;;15.08;100.00;97314.66;5093831;28;20023;-77
2022/07/10 00:39:36;;;;;;;18.02;10.20;;;;;;;15.06;100.00;97322.00;5093729;28;20525;-79
2022/07/10 00:42:21;;;;;;;15.63;10.40;;;;;;;14.98;100.00;97311.03;5127791;27;20023;-77
2022/07/10 00:44:47;;;;;;;13.52;9.82;;;;;;;14.98;100.00;97316.44;5113075;27;20474;-77
2022/07/10 00:47:14;;;;;;;17.77;10.18;;;;;;;14.89;100.00;97309.09;5098514;28;20038;-77
2022/07/10 00:49:40;;;;;;;14.63;10.30;;;;;;;14.98;100.00;97306.47;5095057;27;20074;-77
2022/07/10 00:52:07;;;;;;;14.70;10.35;;;;;;;15.07;100.00;97300.31;5109989;28;20481;-77
2022/07/10 00:54:34;;;;;;;14.13;11.15;;;;;;;15.00;100.00;97296.44;5112873;27;20532;-78
2022/07/10 00:57:00;;;;;;;16.92;10.85;;;;;;;15.00;100.00;97298.28;5102612;27;20123;-78
2022/07/10 00:59:26;;;;;;;18.42;10.75;;;;;;;15.07;100.00;97297.63;5115278;27;20502;-78
2022/07/10 01:01:52;;;;;;;16.92;10.90;;;;;;;15.16;100.00;97306.81;5095058;27;20019;-78
2022/07/10 01:04:37;;;;;;;13.98;9.73;;;;;;;15.18;100.00;97292.22;5101764;28;20410;-77
2022/07/10 01:07:03;;;;;;;18.77;9.68;;;;;;;15.11;100.00;97282.06;5096330;27;20077;-78
2022/07/10 01:09:29;;;;;;;18.08;11.20;;;;;;;15.10;100.00;97288.47;5096638;27;20027;-77
2022/07/10 01:11:56;;;;;;;23.75;10.95;;;;;;;15.15;100.00;97294.31;5093410;28;20112;-78
2022/07/10 01:14:22;;;;;;;15.10;10.82;;;;;;;15.03;100.00;97292.63;5110309;28;20032;-77
2022/07/10 01:16:48;;;;;;;26.27;11.50;;;;;;;15.02;100.00;97283.69;5110890;27;20417;-77
2022/07/10 01:19:13;;;;;;;20.45;11.35;;;;;;;15.00;100.00;97282.13;5099260;28;20035;-78
2022/07/10 01:21:39;;;;;;;18.30;10.98;;;;;;;15.13;100.00;97283.63;5111255;27;20024;-78
2022/07/10 01:24:09;;;;;;;18.15;10.43;;;;;;;15.21;100.00;97293.78;5096046;27;20151;-78
2022/07/10 01:26:36;;;;;;;23.58;10.77;;;;;;;15.22;100.00;97291.94;5104913;27;20047;-79
2022/07/10 01:29:03;;;;;;;36.38;12.32;;;;;;;15.24;100.00;97285.44;5085908;27;20023;-79
2022/07/10 01:31:29;;;;;;;22.92;12.02;;;;;;;15.19;100.00;97276.91;5097343;28;20058;-79
2022/07/10 01:33:55;;;;;;;27.42;12.30;;;;;;;15.28;100.00;97286.03;5094376;27;20190;-79
2022/07/10 01:36:21;;;;;;;55.00;13.23;;;;;;;15.38;100.00;97279.72;5093166;28;20434;-78
2022/07/10 01:38:47;;;;;;;70.13;12.35;;;;;;;15.37;100.00;97278.03;5094115;28;20035;-79
2022/07/10 01:41:30;;;;;;;18.95;11.93;;;;;;;15.33;100.00;97268.47;5095885;27;20049;-78
2022/07/10 01:43:58;;;;;;;163.30;13.23;;;;;;;15.27;100.00;97268.16;5109570;28;20486;-77
2022/07/10 01:46:24;;;;;;;41.30;11.13;;;;;;;15.22;100.00;97271.25;5096110;28;20023;-77
2022/07/10 01:48:49;;;;;;;47.72;12.20;;;;;;;15.23;100.00;97262.16;5094026;28;20122;-77
2022/07/10 01:51:17;;;;;;;34.95;13.20;;;;;;;15.18;100.00;97269.78;5096025;28;20406;-77
2022/07/10 01:53:43;;;;;;;33.30;13.85;;;;;;;15.19;100.00;97280.47;5097849;28;20062;-77
2022/07/10 01:56:11;;;;;;;37.60;13.27;;;;;;;15.23;100.00;97283.72;5093007;28;20467;-77
2022/07/10 01:58:37;;;;;;;27.20;12.57;;;;;;;15.21;100.00;97283.00;5093097;28;20452;-77
2022/07/10 02:01:03;;;;;;;22.80;11.80;;;;;;;15.21;100.00;97277.63;5111865;28;20024;-78
2022/07/10 02:06:13;;;;;;;20.58;12.38;;;;;;;15.19;100.00;97288.53;5115517;27;20102;-77
2022/07/10 02:08:38;;;;;;;60.53;12.77;;;;;;;15.17;100.00;97268.94;5105170;27;20030;-78
2022/07/10 02:11:04;;;;;;;41.72;13.18;;;;;;;15.30;100.00;97271.44;5115780;27;20422;-78
2022/07/10 02:13:30;;;;;;;22.27;12.82;;;;;;;15.28;100.00;97276.13;5101339;28;20031;-78
2022/07/10 02:15:55;;;;;;;21.48;10.75;;;;;;;15.28;100.00;97262.66;5115042;27;20032;-78
2022/07/10 02:18:22;;;;;;;32.50;12.32;;;;;;;15.21;100.00;97280.31;5096216;28;20039;-77
2022/07/10 02:20:47;;;;;;;21.77;13.07;;;;;;;15.11;100.00;97271.28;5113534;28;20019;-77
2022/07/10 02:23:13;;;;;;;22.00;12.82;;;;;;;15.02;100.00;97277.44;5097891;27;20083;-77
2022/07/10 02:25:39;;;;;;;28.02;13.65;;;;;;;15.07;100.00;97281.47;5096654;28;20387;-77
2022/07/10 02:28:05;;;;;;;37.88;14.25;;;;;;;15.10;100.00;97283.06;5113483;28;20031;-77
2022/07/10 02:30:30;;;;;;;26.02;13.07;;;;;;;15.10;100.00;97273.13;5103140;28;20027;-77
2022/07/10 02:32:56;;;;;;;20.15;13.80;;;;;;;15.08;100.00;97276.94;5130803;27;20059;-79
2022/07/10 02:35:22;;;;;;;21.92;13.88;;;;;;;15.10;100.00;97277.69;5099665;27;20055;-79
2022/07/10 02:37:47;;;;;;;27.70;14.18;;;;;;;15.15;100.00;97275.44;5098747;28;20039;-80
2022/07/10 02:40:13;;;;;;;23.27;13.68;;;;;;;15.21;100.00;97274.91;5114365;27;20046;-79
2022/07/10 02:42:38;;;;;;;20.67;13.90;;;;;;;15.18;100.00;97296.75;5113264;28;20007;-78
2022/07/10 02:45:04;;;;;;;36.25;13.75;;;;;;;15.24;100.00;97289.97;5097706;27;20023;-77
2022/07/10 02:47:30;;;;;;;29.42;13.38;;;;;;;15.23;100.00;97285.59;5099247;27;20053;-78
2022/07/10 02:49:55;;;;;;;19.15;12.90;;;;;;;15.25;100.00;97272.81;5101688;28;20023;-78
2022/07/10 02:52:21;;;;;;;26.05;12.60;;;;;;;15.26;100.00;97283.47;5097125;27;20023;-78
2022/07/10 02:54:47;;;;;;;27.38;13.77;;;;;;;15.27;100.00;97287.00;5095962;28;20065;-78
2022/07/10 02:57:13;;;;;;;17.98;12.32;;;;;;;15.35;100.00;97282.66;5097078;27;20024;-78
2022/07/10 02:59:38;;;;;;;24.25;12.10;;;;;;;15.27;100.00;97287.88;5096155;28;20556;-79
2022/07/10 03:02:04;;;;;;;18.13;11.95;;;;;;;15.21;100.00;97280.31;5096816;27;20016;-76
2022/07/10 03:04:30;;;;;;;40.17;12.60;;;;;;;15.16;100.00;97279.84;5116114;27;20030;-77
2022/07/10 03:06:55;;;;;;;79.15;14.05;;;;;;;15.08;100.00;97285.00;5100540;28;20032;-77
2022/07/10 03:09:21;;;;;;;17.13;12.15;;;;;;;15.20;100.00;97281.28;5096819;27;20611;-77
2022/07/10 03:11:46;;;;;;;29.25;11.30;;;;;;;15.27;100.00;97274.41;5095355;28;20066;-77
2022/07/10 03:14:12;;;;;;;17.00;11.07;;;;;;;15.17;100.00;97284.25;5095751;27;20054;-79
2022/07/10 03:16:38;;;;;;;18.45;12.38;;;;;;;15.14;100.00;97279.97;5096841;28;20023;-78
2022/07/10 03:19:03;;;;;;;18.77;11.82;;;;;;;15.14;100.00;97284.50;5095867;27;20043;-79
2022/07/10 03:21:30;;;;;;;18.83;12.05;;;;;;;15.27;100.00;97290.56;5097387;27;20028;-78
2022/07/10 03:23:56;;;;;;;15.70;11.60;;;;;;;15.33;100.00;97275.72;5112451;28;20023;-78
2022/07/10 03:26:22;;;;;;;15.32;11.73;;;;;;;15.31;100.00;97275.00;5113603;27;20050;-78
2022/07/10 03:28:47;;;;;;;16.42;11.60;;;;;;;15.34;100.00;97280.13;5102162;28;20107;-78
2022/07/10 03:31:13;;;;;;;15.02;10.77;;;;;;;15.29;100.00;97275.13;5096358;27;20043;-79
2022/07/10 03:33:39;;;;;;;15.88;11.70;;;;;;;15.26;100.00;97283.47;5139885;27;20031;-78
2022/07/10 03:36:05;;;;;;;36.15;11.57;;;;;;;15.25;100.00;97271.00;5115695;27;20098;-78
2022/07/10 03:38:30;;;;;;;16.85;11.35;;;;;;;15.32;100.00;97272.16;5095917;27;20032;-79
2022/07/10 03:40:56;;;;;;;37.67;11.73;;;;;;;15.32;100.00;97272.16;5100975;28;20088;-78
2022/07/10 03:43:21;;;;;;;16.30;11.43;;;;;;;15.29;100.00;97274.28;5096130;27;20027;-78
2022/07/10 03:45:47;;;;;;;18.58;12.05;;;;;;;15.40;100.00;97271.50;5099179;27;20035;-78
2022/07/10 03:48:12;;;;;;;26.60;12.73;;;;;;;15.30;100.00;97262.50;5098233;27;20035;-79
2022/07/10 03:50:38;;;;;;;19.60;13.02;;;;;;;15.35;100.00;97261.09;5098310;27;20435;-78
2022/07/10 03:53:04;;;;;;;16.30;12.27;;;;;;;15.46;100.00;97269.16;5094505;28;20023;-79
2022/07/10 03:55:29;;;;;;;15.60;11.23;;;;;;;15.47;100.00;97262.78;5111661;28;20071;-79
2022/07/10 03:57:59;;;;;;;17.45;12.00;;;;;;;15.53;100.00;97258.72;5111576;28;20027;-79
2022/07/10 04:00:26;;;;;;;14.88;11.40;;;;;;;15.51;100.00;97261.53;5103103;27;20103;-78
2022/07/10 04:03:03;;;;;;;15.70;11.73;;;;;;;15.64;100.00;97255.94;5094647;28;20042;-78
2022/07/10 04:05:29;;;;;;;26.35;12.07;;;;;;;15.69;100.00;97251.00;5112497;27;20147;-78
2022/07/10 04:07:59;;;;;;;27.95;11.48;;;;;;;15.80;100.00;97245.53;5094311;28;20047;-79
2022/07/10 04:10:28;;;;;;;18.92;11.60;;;;;;;15.88;100.00;97248.41;5095875;27;20092;-78
2022/07/10 04:12:54;;;;;;;18.70;11.35;;;;;;;15.87;100.00;97248.56;5094422;28;20035;-78
2022/07/10 04:15:20;;;;;;;22.88;11.98;;;;;;;15.95;100.00;97256.81;5112744;27;20130;-78
2022/07/10 04:17:47;;;;;;;17.38;10.95;;;;;;;15.90;100.00;97245.59;5096770;27;20027;-79
2022/07/10 04:20:13;;;;;;;16.88;11.55;;;;;;;16.04;100.00;97253.31;5111665;28;20079;-78
2022/07/10 04:22:39;;;;;;;14.82;11.15;;;;;;;16.06;100.00;97252.16;5095484;27;21397;-79
2022/07/10 04:25:05;;;;;;;17.05;11.88;;;;;;;15.99;100.00;97245.63;5094410;28;20100;-78
2022/07/10 04:27:31;;;;;;;16.02;12.13;;;;;;;16.07;100.00;97247.63;5095288;27;20042;-78
2022/07/10 04:29:57;;;;;;;13.48;10.65;;;;;;;16.11;100.00;97259.88;5104082;27;20027;-79
2022/07/10 04:32:22;;;;;;;17.58;11.43;;;;;;;16.20;100.00;97250.97;5094974;28;20031;-80
2022/07/10 04:34:48;;;;;;;15.20;11.20;;;;;;;16.12;100.00;97248.06;5091559;28;20038;-78
2022/07/10 04:37:13;;;;;;;15.18;11.25;;;;;;;16.22;100.00;97246.25;5120876;27;20031;-79
2022/07/10 04:39:39;;;;;;;24.05;11.32;;;;;;;16.30;100.00;97251.84;5093645;27;20062;-78
2022/07/10 04:42:06;;;;;;;20.30;11.43;;;;;;;16.31;100.00;97233.78;5097030;27;21455;-78
2022/07/10 04:44:33;;;;;;;15.93;11.30;;;;;;;16.62;100.00;97240.84;5104747;28;20047;-78
2022/07/10 04:46:58;;;;;;;25.08;11.30;;;;;;;16.74;100.00;97243.28;5094857;27;20470;-79
2022/07/10 04:49:24;;;;;;;13.98;10.82;;;;;;;16.87;100.00;97236.75;5093674;28;20030;-79
2022/07/10 04:51:50;;;;;;;17.85;11.20;;;;;;;16.97;100.00;97238.47;5127658;27;20111;-79
2022/07/10 04:54:16;;;;;;;14.60;10.23;;;;;;;17.14;100.00;97242.31;5098941;28;20118;-79
2022/07/10 04:56:41;;;;;;;22.95;10.98;;;;;;;17.31;100.00;97247.00;5111900;27;20024;-78
2022/07/10 04:59:07;;;;;;;20.60;10.43;;;;;;;17.37;100.00;97240.16;5096025;27;20027;-78
2022/07/10 05:01:33;;;;;;;19.02;10.80;;;;;;;17.34;100.00;97235.91;5115365;27;20015;-78
2022/07/10 05:03:59;;;;;;;13.55;10.45;;;;;;;17.65;100.00;97229.31;5100831;28;20031;-79
2022/07/10 05:06:24;;;;;;;13.60;9.88;;;;;;;17.95;100.00;97241.75;5093079;28;20035;-78
2022/07/10 05:08:50;;;;;;;12.32;8.52;;;;;;;17.96;100.00;97231.78;5090930;28;20065;-79
2022/07/10 05:11:16;;;;;;;11.27;9.73;;;;;;;18.09;100.00;97237.72;5089362;28;20905;-78
2022/07/10 05:13:45;;;;;;;15.23;9.40;;;;;;;18.24;100.00;97233.53;5090979;28;20418;-79
2022/07/10 05:16:12;;;;;;;16.33;8.48;;;;;;;18.72;100.00;97231.41;5110237;27;20031;-80
2022/07/10 05:18:39;;;;;;;9.93;7.82;;;;;;;19.08;100.00;97224.13;5094615;27;20035;-80
2022/07/10 05:21:04;;;;;;;10.93;8.05;;;;;;;19.18;100.00;97230.34;5094579;27;20443;-78
2022/07/10 05:23:30;;;;;;;9.65;8.10;;;;;;;19.26;100.00;97219.53;5094522;27;20033;-77
2022/07/10 05:25:55;;;;;;;9.93;7.43;;;;;;;19.17;100.00;97222.34;5108176;28;20035;-78
2022/07/10 05:28:21;;;;;;;9.48;7.68;;;;;;;19.20;100.00;97220.16;5093489;27;20054;-77
2022/07/10 05:30:48;;;;;;;9.63;8.13;;;;;;;18.89;100.00;97230.56;5109738;27;20089;-79
2022/07/10 05:33:15;;;;;;;9.18;7.38;;;;;;;19.15;100.00;97222.50;5126417;27;20467;-78
2022/07/10 05:35:40;;;;;;;12.38;7.13;;;;;;;19.86;100.00;97223.25;5109172;28;20455;-79
2022/07/10 05:38:06;;;;;;;8.38;7.28;;;;;;;20.65;100.00;97222.09;5094478;27;20054;-80
2022/07/10 05:40:31;;;;;;;8.95;6.97;;;;;;;20.75;99.73;97223.66;5126095;27;20391;-80
2022/07/10 05:42:57;;;;;;;9.02;6.70;;;;;;;20.76;98.87;97233.53;5093921;28;20110;-79
2022/07/10 05:45:23;;;;;;;14.07;8.32;;;;;;;19.61;100.00;97224.09;5094168;28;20048;-80
2022/07/10 05:47:48;;;;;;;12.93;7.82;;;;;;;19.41;100.00;97228.03;5097745;28;20043;-77
2022/07/10 05:50:14;;;;;;;12.57;9.55;;;;;;;19.31;100.00;97229.94;5112886;28;20019;-81
2022/07/10 05:52:40;;;;;;;15.63;11.57;;;;;;;19.41;100.00;97234.28;5092057;28;20406;-84
2022/07/10 05:55:07;;;;;;;17.02;11.80;;;;;;;19.72;100.00;97226.53;5108741;28;20402;-82
2022/07/10 05:57:33;;;;;;;13.13;9.57;;;;;;;19.68;100.00;97221.59;5094267;28;20072;-82
2022/07/10 05:59:59;;;;;;;15.80;10.63;;;;;;;19.34;100.00;97226.91;5097985;28;20156;-82
2022/07/10 06:02:24;;;;;;;18.27;9.30;;;;;;;20.00;100.00;97241.66;5096123;28;20027;-83
2022/07/10 06:04:50;;;;;;;16.10;9.30;;;;;;;20.30;100.00;97240.31;5087031;28;20363;-83
2022/07/10 06:07:16;;;;;;;11.50;8.82;;;;;;;20.18;100.00;97238.03;5096116;28;20034;-81
2022/07/10 06:09:42;;;;;;;16.15;10.60;;;;;;;22.05;96.61;97244.50;5094604;28;20024;-82
2022/07/10 06:12:08;;;;;;;27.58;13.85;;;;;;;23.85;84.13;97241.47;5108824;28;20042;-78
2022/07/10 06:14:34;;;;;;;11.75;7.43;;;;;;;25.16;75.25;97245.25;5109725;28;20027;-78
2022/07/10 06:16:59;;;;;;;9.80;7.25;;;;;;;26.26;68.56;97230.94;5102503;28;20032;-79
2022/07/10 06:19:25;;;;;;;13.05;8.30;;;;;;;27.02;64.71;97230.91;5112289;28;20031;-79
2022/07/10 06:22:30;;;;;;;8.48;6.55;;;;;;;28.26;58.70;97214.63;5109500;28;20034;-79
2022/07/10 06:24:36;;;;;;;22.77;8.52;;;;;;;29.28;55.35;97209.25;5109931;28;20028;-80
2022/07/10 06:27:02;;;;;;;10.50;7.03;;;;;;;28.36;56.93;97228.78;5095661;28;20088;-80
2022/07/10 06:29:27;;;;;;;14.90;8.27;;;;;;;27.78;57.38;97222.22;5091979;28;20023;-80
2022/07/10 06:32:22;;;;;;;10.57;7.60;;;;;;;27.42;59.55;97222.63;5092218;28;20421;-80
2022/07/10 06:34:57;;;;;;;13.88;8.10;;;;;;;27.30;59.49;97202.28;5114232;27;20464;-80
2022/07/10 06:37:23;;;;;;;14.18;8.60;;;;;;;28.56;56.31;97197.59;5110196;28;20066;-80
2022/07/10 06:39:49;;;;;;;10.98;8.43;;;;;;;27.67;57.49;97219.25;5095192;28;20145;-80
2022/07/10 06:42:14;;;;;;;9.80;8.43;;;;;;;27.27;59.08;97226.56;5092033;28;20027;-80
2022/07/10 06:44:42;;;;;;;9.43;7.10;;;;;;;27.78;58.27;97222.22;5114487;28;20081;-80
2022/07/10 06:49:53;;;;;;;8.75;7.38;;;;;;;31.52;50.26;97211.50;5109532;28;20076;-80
2022/07/10 06:52:18;;;;;;;11.35;7.13;;;;;;;32.74;46.25;97198.78;5130878;27;20383;-80
2022/07/10 06:54:44;;;;;;;9.52;6.97;;;;;;;32.79;44.82;97193.38;5096794;28;20034;-81
2022/07/10 06:57:10;;;;;;;12.10;6.72;;;;;;;32.28;46.18;97199.63;5094681;28;20027;-80
2022/07/10 06:59:35;;;;;;;8.80;6.70;;;;;;;32.63;44.92;97194.13;5095377;28;20023;-80
2022/07/10 07:02:01;;;;;;;16.90;7.68;;;;;;;30.47;48.91;97203.66;5095452;28;20046;-80
2022/07/10 07:04:27;;;;;;;11.80;7.97;;;;;;;30.69;49.25;97210.41;5095396;28;20035;-81
2022/07/10 07:06:52;;;;;;;9.68;8.02;;;;;;;28.29;54.08;97208.69;5113873;27;20036;-81
2022/07/10 07:09:18;;;;;;;10.05;7.65;;;;;;;27.77;57.16;97225.19;5115186;27;20036;-81
2022/07/10 07:11:43;;;;;;;13.03;8.90;;;;;;;28.11;55.71;97211.28;5110950;28;20928;-80
2022/07/10 07:14:09;;;;;;;7.78;6.97;;;;;;;30.30;50.91;97202.53;5094373;28;20502;-81
2022/07/10 07:16:46;;;;;;;10.38;6.40;;;;;;;32.67;45.09;97178.69;5094912;28;20024;-81
2022/07/10 07:19:17;;;;;;;9.45;6.22;;;;;;;33.87;42.29;97178.63;5115013;27;20034;-81
2022/07/10 07:24:27;;;;;;;8.15;5.78;;;;;;;35.06;39.58;97164.06;5113386;27;20383;-81
2022/07/10 07:26:52;;;;;;;6.55;4.90;;;;;;;35.93;37.77;97143.59;5100121;27;20019;-81
2022/07/10 07:29:18;;;;;;;7.37;6.00;;;;;;;31.73;43.48;97160.31;5114653;27;20452;-80
2022/07/10 07:31:44;;;;;;;5.05;4.55;;;;;;;30.22;46.66;97183.47;5097575;27;20060;-81
2022/07/10 07:34:10;;;;;;;9.95;5.18;;;;;;;30.21;46.63;97182.63;5098456;27;20024;-81
2022/07/10 07:36:35;;;;;;;7.72;4.50;;;;;;;30.16;45.71;97178.88;5106062;27;20030;-81
2022/07/10 07:39:01;;;;;;;6.75;5.18;;;;;;;29.90;47.58;97180.78;5113228;27;20023;-81
2022/07/10 07:41:27;;;;;;;7.75;4.38;;;;;;;30.21;47.04;97182.63;5097496;28;20384;-81
2022/07/10 07:43:52;;;;;;;9.27;4.57;;;;;;;30.49;44.62;97171.97;5094823;28;20495;-81
2022/07/10 07:46:18;;;;;;;;;;;;;;;30.75;43.79;97172.72;5109742;28;20016;-81
2022/07/10 07:48:44;;;;;;;5.75;3.80;;;;;;;33.22;37.89;97149.38;5131595;27;19915;-81
2022/07/10 07:51:09;;;;;;;5.47;4.05;;;;;;;32.14;38.97;97145.59;5094606;28;20031;-81
2022/07/10 07:53:35;;;;;;;4.18;3.78;;;;;;;32.72;37.63;97135.31;5111625;28;20072;-81
2022/07/10 07:56:00;;;;;;;6.95;4.45;;;;;;;33.10;37.73;97142.22;5128503;27;20114;-81
2022/07/10 07:58:26;;;;;;;3.60;3.08;;;;;;;34.40;35.17;97147.56;5128823;27;20399;-81
2022/07/10 08:00:52;;;;;;;3.88;3.47;;;;;;;35.13;33.92;97136.09;5120789;27;20043;-81
2022/07/10 08:03:17;;;;;;;5.18;3.10;;;;;;;35.54;33.07;97138.19;5110849;28;20031;-81
2022/07/10 08:05:43;;;;;;;3.28;2.97;;;;;;;35.68;32.99;97139.50;5127515;27;20098;-82
2022/07/10 08:08:09;;;;;;;7.05;3.72;;;;;;;34.71;34.01;97131.09;5095244;28;20192;-81
2022/07/10 08:10:36;;;;;;;7.90;3.83;;;;;;;33.73;35.36;97128.97;5094256;28;20024;-81
2022/07/10 08:13:03;;;;;;;5.68;3.20;;;;;;;33.10;36.59;97133.91;5128491;27;20550;-81
2022/07/10 08:15:29;;;;;;;3.67;3.28;;;;;;;34.29;34.36;97138.25;5098322;28;20020;-80
2022/07/10 08:17:56;;;;;;;5.18;3.25;;;;;;;33.92;35.43;97139.84;5093608;27;20176;-81
2022/07/10 08:20:22;;;;;;;9.05;3.72;;;;;;;34.74;34.01;97135.28;5112149;27;20020;-81
2022/07/10 08:22:48;;;;;;;4.72;3.38;;;;;;;34.39;35.02;97143.13;5094161;28;20016;-81
2022/07/10 08:25:14;;;;;;;4.97;3.38;;;;;;;33.81;34.28;97122.16;5093827;28;20042;-81
2022/07/10 08:27:40;;;;;;;4.15;3.42;;;;;;;32.69;36.74;97138.56;5093863;28;20027;-81
2022/07/10 08:30:06;;;;;;;6.68;3.65;;;;;;;34.66;33.82;97130.19;5095417;27;20038;-81
2022/07/10 08:32:32;;;;;;;23.25;9.23;;;;;;;34.15;34.75;97132.19;5115278;27;20451;-81
2022/07/10 08:34:59;;;;;;;7.97;3.72;;;;;;;34.33;34.00;97138.56;5094005;28;20066;-81
2022/07/10 08:37:24;;;;;;;5.85;3.75;;;;;;;33.73;34.49;97134.53;5093780;28;20027;-81
2022/07/10 08:39:50;;;;;;;5.90;3.42;;;;;;;33.45;35.03;97131.78;5127790;27;20108;-82
2022/07/10 08:42:16;;;;;;;4.80;2.88;;;;;;;32.87;35.00;97140.31;5110965;28;20016;-82
2022/07/10 08:44:42;;;;;;;5.97;3.20;;;;;;;33.03;35.66;97136.78;5093676;28;20023;-81
2022/07/10 08:47:07;;;;;;;5.05;3.72;;;;;;;33.23;35.51;97134.41;5110745;28;20100;-81
2022/07/10 08:49:35;;;;;;;4.82;3.30;;;;;;;34.05;35.16;97137.56;5113817;27;20031;-81
2022/07/10 08:52:12;;;;;;;4.50;2.97;;;;;;;36.02;31.91;97125.28;5097236;27;20019;-82
2022/07/10 08:54:38;;;;;;;5.47;3.60;;;;;;;34.94;33.24;97123.59;5104471;28;20076;-81
2022/07/10 08:57:05;;;;;;;4.82;3.22;;;;;;;35.27;31.77;97113.16;5093745;28;20040;-83
2022/07/10 08:59:31;;;;;;;4.80;2.85;;;;;;;36.55;30.38;97115.97;5127826;27;20031;-81
2022/07/10 09:01:58;;;;;;;3.95;3.20;;;;;;;37.59;29.35;97113.84;5110807;28;20019;-81
2022/07/10 09:04:25;;;;;;;5.40;2.80;;;;;;;34.24;31.72;97108.44;5128326;27;20110;-81
2022/07/10 09:06:52;;;;;;;3.17;2.80;;;;;;;33.10;34.33;97118.06;5096559;27;20023;-80
2022/07/10 09:09:18;;;;;;;3.38;3.08;;;;;;;31.17;37.01;97105.44;5113730;27;20022;-81
2022/07/10 09:11:44;;;;;;;5.07;2.97;;;;;;;31.68;36.57;97113.16;5095298;28;20406;-81
2022/07/10 09:14:14;;;;;;;6.80;2.88;;;;;;;31.85;35.12;97100.31;5109437;28;20148;-81
2022/07/10 09:16:45;;;;;;;8.00;2.90;;;;;;;31.93;35.27;97104.66;5093394;28;20074;-81
2022/07/10 09:19:15;;;;;;;3.80;3.03;;;;;;;32.35;35.51;97103.44;5096043;27;20053;-81
2022/07/10 09:21:41;;;;;;;4.13;2.85;;;;;;;33.55;34.17;97103.38;5130640;27;20060;-82
2022/07/10 09:24:10;;;;;;;6.55;2.78;;;;;;;32.85;35.33;97111.19;5094357;28;20471;-81
2022/07/10 09:26:40;;;;;;;4.22;2.88;;;;;;;33.79;32.90;97110.47;5109370;28;20067;-81
2022/07/10 09:29:07;;;;;;;3.10;2.60;;;;;;;33.49;33.44;97096.91;5110062;28;20142;-81
2022/07/10 09:31:49;;;;;;;3.35;2.90;;;;;;;33.79;33.18;97100.22;5112621;27;20176;-80
2022/07/10 09:34:15;;;;;;;10.35;3.15;;;;;;;36.18;30.33;97083.34;5110403;28;20523;-81
2022/07/10 09:36:40;;;;;;;6.10;2.70;;;;;;;34.50;31.06;97087.41;5109733;28;20106;-82
2022/07/10 09:39:08;;;;;;;4.25;3.10;;;;;;;35.93;29.72;97082.31;5094466;27;20514;-81
2022/07/10 09:41:33;;;;;;;6.43;2.38;;;;;;;37.64;27.70;97066.38;5093722;27;20086;-81
2022/07/10 09:44:04;;;;;;;3.13;2.72;;;;;;;37.29;27.80;97077.47;5090369;28;20051;-82
2022/07/10 09:46:35;;;;;;;6.05;2.42;;;;;;;34.07;30.62;97063.16;5092640;28;20050;-81
2022/07/10 09:49:14;;;;;;;8.63;4.80;;;;;;;35.81;29.95;97074.97;5098358;28;20028;-82
2022/07/10 09:51:41;;;;;;;3.40;2.20;;;;;;;35.03;31.00;97060.84;5092734;28;20298;-82
2022/07/10 09:54:13;;;;;;;6.85;2.33;;;;;;;36.23;28.13;97055.53;5127932;27;20030;-83
2022/07/10 09:56:46;;;;;;;4.63;3.00;;;;;;;34.71;29.85;97069.94;5094248;28;20035;-82
2022/07/10 09:59:16;;;;;;;6.40;2.72;;;;;;;34.45;30.61;97061.50;5126913;27;20100;-82
2022/07/10 10:01:48;;;;;;;2.50;2.30;;;;;;;35.28;30.24;97072.25;5110027;28;20142;-83
2022/07/10 10:04:19;;;;;;;9.50;3.10;;;;;;;34.06;30.32;97066.19;5126965;27;20483;-83
2022/07/10 10:06:52;;;;;;;6.30;3.22;;;;;;;33.58;31.93;97075.13;5129862;27;20042;-81
2022/07/10 10:09:24;;;;;;;7.63;2.47;;;;;;;32.19;32.74;97070.94;5094356;28;20035;-82
2022/07/10 10:11:56;;;;;;;2.85;2.55;;;;;;;33.42;32.32;97059.31;5109680;28;20019;-82
2022/07/10 10:14:23;;;;;;;4.47;2.40;;;;;;;35.50;29.80;97064.66;5092365;28;20035;-82
2022/07/10 10:16:49;;;;;;;3.60;2.10;;;;;;;34.86;28.87;97041.44;5094342;28;20020;-82
2022/07/10 10:21:59;;;;;;;5.10;2.28;;;;;;;36.01;28.60;97052.03;5109904;28;20078;-82
2022/07/10 10:24:25;;;;;;;4.78;2.20;;;;;;;34.37;30.11;97048.88;5127643;27;20486;-82
2022/07/10 10:26:51;;;;;;;5.63;2.35;;;;;;;31.85;32.51;97042.19;5098253;27;20076;-82
2022/07/10 10:29:17;;;;;;;2.90;2.60;;;;;;;31.26;34.05;97051.50;5110276;27;20035;-82
2022/07/10 10:31:42;;;;;;;6.88;2.75;;;;;;;30.27;35.25;97051.97;5096048;28;20023;-81
2022/07/10 10:34:08;;;;;;;7.18;3.55;;;;;;;29.78;37.07;97058.44;5095931;28;20042;-82
2022/07/10 10:36:37;;;;;;;11.18;6.05;;;;;;;29.75;36.98;97069.13;5096277;28;20057;-81
2022/07/10 10:39:10;;;;;;;7.97;3.90;;;;;;;30.01;35.47;97058.69;5113448;28;20082;-81
2022/07/10 10:41:51;;;;;;;2.72;2.42;;;;;;;30.11;35.58;97060.91;5113301;28;20035;-81
2022/07/10 10:44:16;;;;;;;5.70;2.53;;;;;;;29.91;36.07;97061.09;5113012;28;20126;-81
2022/07/10 10:46:54;;;;;;;7.60;2.50;;;;;;;29.28;37.01;97054.91;5112748;28;20867;-82
2022/07/10 10:49:21;;;;;;;2.30;2.10;;;;;;;29.29;37.79;97042.78;5124465;27;20031;-82
2022/07/10 10:51:56;;;;;;;8.75;2.72;;;;;;;29.29;37.99;97052.97;5097371;28;20532;-81
2022/07/10 10:54:22;;;;;;;4.82;2.30;;;;;;;29.38;37.65;97044.19;5130101;27;20023;-82
2022/07/10 10:57:14;;;;;;;10.32;2.35;;;;;;;29.79;37.16;97040.84;5113425;28;20047;-81
2022/07/10 10:59:46;;;;;;;;;;;;;;;29.55;36.93;97037.06;5085616;28;20031;-81
2022/07/10 11:02:32;;;;;;;3.97;2.38;;;;;;;29.94;36.47;97043.25;5114288;28;19911;-82
2022/07/10 11:05:17;;;;;;;5.13;2.28;;;;;;;29.51;36.97;97040.47;5112638;28;20168;-82
2022/07/10 11:07:55;;;;;;;5.47;2.70;;;;;;;29.56;38.49;97047.00;5119775;27;20086;-81
2022/07/10 11:10:33;;;;;;;2.40;2.20;;;;;;;28.48;37.69;97036.31;5141264;27;20038;-83
2022/07/10 11:13:00;;;;;;;2.28;1.98;;;;;;;29.10;36.88;97032.78;5119635;27;20045;-84
2022/07/10 11:15:29;;;;;;;3.83;2.35;;;;;;;30.18;36.16;97039.56;5119454;27;20482;-83
2022/07/10 11:18:15;;;;;;;4.35;2.40;;;;;;;30.01;36.36;97027.47;5099489;27;20023;-83
2022/07/10 11:20:46;;;;;;;4.63;2.28;;;;;;;30.92;35.40;97021.81;5110956;27;20035;-81
2022/07/10 11:23:33;;;;;;;5.95;2.47;;;;;;;32.72;32.53;97015.31;5092013;28;20035;-80
2022/07/10 11:26:10;;;;;;;2.22;2.03;;;;;;;33.61;31.39;97019.16;5121412;27;20042;-82
2022/07/10 11:28:56;;;;;;;4.63;1.88;;;;;;;32.85;31.82;96992.00;5108941;28;20138;-80
2022/07/10 11:31:23;;;;;;;3.17;2.35;;;;;;;32.40;32.05;97003.84;5107963;28;20029;-79
2022/07/10 11:33:51;;;;;;;4.35;2.50;;;;;;;32.17;31.75;96998.38;5096759;27;20055;-82